Time;durP1;ratioP1;P1;durP2;ratioP2;P2;SDS_P1;SDS_P2;PMS_P1;PMS_P2;Temp;Humidity;BMP_temperature;BMP_pressure;BME280_temperature;BME280_humidity;BME280_pressure;Samples;Min_cycle;Max_cycle;Signal;HPM_P1;HPM_P2
2022/06/12 00:00:30;;;;;;;6.60;2.45;;;15.80;97.10;;;;;;4961102;28;20086;-59
2022/06/12 00:02:57;;;;;;;8.40;2.25;;;15.80;97.50;;;;;;4969966;28;20126;-60
2022/06/12 00:05:25;;;;;;;7.18;2.00;;;15.80;97.60;;;;;;4970009;28;20089;-60
2022/06/12 00:07:52;;;;;;;13.05;2.45;;;15.80;97.80;;;;;;4970071;28;20074;-60
2022/06/12 00:10:19;;;;;;;9.63;2.13;;;15.70;98.10;;;;;;4968961;28;20473;-59
2022/06/12 00:12:46;;;;;;;9.55;2.83;;;15.70;98.60;;;;;;4969690;28;20055;-59
2022/06/12 00:15:15;;;;;;;11.63;3.22;;;15.60;98.80;;;;;;4969711;28;20102;-60
2022/06/12 00:17:43;;;;;;;9.07;2.30;;;15.60;98.90;;;;;;4969652;28;20075;-59
2022/06/12 00:20:11;;;;;;;10.80;2.70;;;15.60;99.20;;;;;;4969527;28;20082;-59
2022/06/12 00:22:39;;;;;;;5.18;1.88;;;15.50;99.10;;;;;;4969529;28;20050;-59
2022/06/12 00:25:09;;;;;;;9.35;2.90;;;15.50;99.90;;;;;;4968791;28;20074;-59
2022/06/12 00:27:36;;;;;;;12.55;3.58;;;15.40;99.60;;;;;;4969952;28;20124;-60
2022/06/12 00:30:05;;;;;;;7.97;2.08;;;15.40;99.60;;;;;;4969378;28;20532;-60
2022/06/12 00:32:31;;;;;;;13.38;5.18;;;15.40;99.90;;;;;;4961731;28;20102;-60
2022/06/12 00:34:58;;;;;;;10.30;2.15;;;15.40;99.90;;;;;;4621653;28;9999984;-60
2022/06/12 00:37:26;;;;;;;12.02;2.55;;;15.30;99.90;;;;;;4966551;28;20085;-60
2022/06/12 00:39:54;;;;;;;19.27;2.45;;;15.30;99.90;;;;;;4968936;28;21184;-60
2022/06/12 00:42:28;;;;;;;8.85;2.78;;;15.20;99.90;;;;;;4969411;28;20046;-60
2022/06/12 00:44:56;;;;;;;6.05;2.17;;;15.20;99.90;;;;;;4968515;28;20089;-60
2022/06/12 00:47:23;;;;;;;5.82;2.03;;;15.20;99.90;;;;;;4969500;28;20070;-60
2022/06/12 00:50:05;;;;;;;8.13;2.47;;;15.20;99.90;;;;;;4968531;28;20055;-59
2022/06/12 00:52:37;;;;;;;11.77;2.67;;;15.20;99.90;;;;;;4964683;28;20046;-59
2022/06/12 00:55:14;;;;;;;9.95;2.53;;;15.20;99.90;;;;;;4967378;28;20130;-59
2022/06/12 00:57:41;;;;;;;8.80;1.88;;;15.10;99.90;;;;;;4968796;28;20544;-60
2022/06/12 01:00:13;;;;;;;14.50;3.17;;;15.00;99.90;;;;;;4968504;28;20740;-61
2022/06/12 01:02:40;;;;;;;11.10;2.17;;;15.00;99.90;;;;;;4968634;28;20141;-59
2022/06/12 01:07:59;;;;;;;13.13;2.05;;;14.90;99.90;;;;;;4965532;28;20122;-59
2022/06/12 01:10:28;;;;;;;11.15;2.63;;;14.80;99.90;;;;;;4967146;28;20134;-59
2022/06/12 01:13:02;;;;;;;9.38;2.20;;;14.80;99.90;;;;;;4968577;28;20406;-60
2022/06/12 01:15:39;;;;;;;15.80;3.45;;;14.80;99.90;;;;;;4967471;28;20133;-60
2022/06/12 01:18:07;;;;;;;12.32;2.13;;;14.80;99.90;;;;;;4998268;28;20043;-59
2022/06/12 01:20:52;;;;;;;26.05;4.30;;;14.80;99.90;;;;;;4966701;28;20141;-59
2022/06/12 01:23:44;;;;;;;12.77;2.40;;;14.80;99.90;;;;;;4965265;28;20478;-59
2022/06/12 01:26:59;;;;;;;5.20;2.35;;;14.70;99.90;;;;;;4966838;28;20078;-59
2022/06/12 01:29:48;;;;;;;18.70;3.25;;;14.70;99.90;;;;;;4954694;28;20081;-60
2022/06/12 01:32:31;;;;;;;12.68;2.40;;;14.70;99.90;;;;;;4968629;28;20051;-60
2022/06/12 01:35:34;;;;;;;17.30;2.70;;;14.70;99.90;;;;;;4998650;28;20051;-60
2022/06/12 01:38:30;;;;;;;11.40;4.72;;;14.60;99.90;;;;;;4959282;28;20054;-59
2022/06/12 01:41:02;;;;;;;22.30;4.35;;;14.60;99.90;;;;;;4981417;28;20086;-59
2022/06/12 01:43:35;;;;;;;11.43;3.42;;;14.60;99.90;;;;;;4966917;28;20129;-61
2022/06/12 01:46:07;;;;;;;12.27;2.80;;;14.50;99.90;;;;;;4964168;28;20137;-60
2022/06/12 01:48:34;;;;;;;15.25;2.70;;;14.50;99.90;;;;;;4966443;28;20098;-59
2022/06/12 01:51:21;;;;;;;11.57;2.65;;;14.40;99.90;;;;;;4968601;28;20078;-58
2022/06/12 01:53:54;;;;;;;13.95;3.60;;;14.40;99.90;;;;;;4966529;28;20133;-59
2022/06/12 01:56:36;;;;;;;9.35;2.53;;;14.40;99.90;;;;;;4963633;28;20075;-60
2022/06/12 01:59:24;;;;;;;14.80;2.63;;;14.30;99.90;;;;;;4968197;28;20055;-59
2022/06/12 02:01:56;;;;;;;8.00;2.33;;;14.20;99.90;;;;;;4985209;28;20485;-60
2022/06/12 02:04:22;;;;;;;15.00;4.00;;;14.30;99.90;;;;;;4967082;28;20552;-60
2022/06/12 02:06:55;;;;;;;10.15;3.13;;;14.20;99.90;;;;;;4968416;28;20086;-60
2022/06/12 02:09:25;;;;;;;9.32;3.10;;;14.20;99.90;;;;;;4968374;28;20097;-59
2022/06/12 02:15:02;;;;;;;8.27;2.30;;;14.10;99.90;;;;;;4968622;28;20082;-59
2022/06/12 02:17:36;;;;;;;11.68;2.72;;;14.10;99.90;;;;;;4963260;28;20074;-61
2022/06/12 02:20:05;;;;;;;14.95;3.15;;;14.00;99.90;;;;;;4966623;28;20093;-59
2022/06/12 02:22:32;;;;;;;7.30;2.83;;;14.10;99.90;;;;;;4982904;28;20106;-60
2022/06/12 02:25:03;;;;;;;11.48;2.70;;;14.10;99.90;;;;;;4979913;28;20123;-60
2022/06/12 02:27:40;;;;;;;13.00;2.25;;;14.10;99.90;;;;;;4966896;28;20043;-60
2022/06/12 02:30:16;;;;;;;14.77;3.05;;;14.00;99.90;;;;;;4984622;28;20127;-60
2022/06/12 02:32:45;;;;;;;9.40;2.75;;;13.90;99.90;;;;;;4963144;28;20441;-61
2022/06/12 02:35:24;;;;;;;13.20;2.88;;;13.80;99.90;;;;;;4972118;28;20474;-62
2022/06/12 02:38:03;;;;;;;11.13;2.85;;;13.90;99.90;;;;;;4995133;28;20074;-59
2022/06/12 02:40:33;;;;;;;7.28;2.00;;;13.80;99.90;;;;;;5000719;28;20138;-60
2022/06/12 02:43:00;;;;;;;15.63;3.42;;;13.80;99.90;;;;;;4970549;28;20178;-63
2022/06/12 02:45:40;;;;;;;9.95;2.47;;;13.70;99.90;;;;;;4966944;28;20078;-60
2022/06/12 02:48:07;;;;;;;11.60;2.83;;;13.70;99.90;;;;;;4977536;28;20090;-60
2022/06/12 02:50:41;;;;;;;10.43;3.03;;;13.60;99.90;;;;;;4969560;28;20090;-60
2022/06/12 02:53:23;;;;;;;10.77;2.08;;;13.60;99.90;;;;;;4969395;28;20047;-58
2022/06/12 02:55:59;;;;;;;11.88;3.58;;;13.60;99.90;;;;;;4969787;28;20134;-59
2022/06/12 02:58:42;;;;;;;17.88;3.40;;;13.60;99.90;;;;;;4964951;28;20133;-59
2022/06/12 03:01:12;;;;;;;6.57;2.33;;;13.60;99.90;;;;;;4969663;28;20125;-59
2022/06/12 03:04:02;;;;;;;14.90;3.08;;;13.60;99.90;;;;;;4969646;28;20043;-59
2022/06/12 03:06:29;;;;;;;9.65;2.40;;;13.60;99.90;;;;;;4969688;28;20047;-59
2022/06/12 03:08:58;;;;;;;16.75;3.22;;;13.50;99.90;;;;;;4969929;28;20051;-59
2022/06/12 03:11:40;;;;;;;15.65;3.20;;;13.60;99.90;;;;;;4970852;28;20047;-59
2022/06/12 03:14:09;;;;;;;11.27;2.25;;;13.50;99.90;;;;;;4970644;28;20059;-59
2022/06/12 03:16:37;;;;;;;20.27;4.03;;;13.50;99.90;;;;;;4970929;28;20050;-59
2022/06/12 03:19:08;;;;;;;15.43;3.38;;;13.40;99.90;;;;;;4968226;28;20049;-59
2022/06/12 03:21:43;;;;;;;11.27;3.90;;;13.40;99.90;;;;;;4970840;28;20154;-60
2022/06/12 03:24:28;;;;;;;17.08;3.42;;;13.40;99.90;;;;;;4969384;28;20311;-59
2022/06/12 03:27:04;;;;;;;18.85;3.67;;;13.40;99.90;;;;;;4973975;28;20143;-60
2022/06/12 03:29:49;;;;;;;17.08;3.60;;;13.30;99.90;;;;;;4968963;28;20141;-59
2022/06/12 03:32:29;;;;;;;9.02;2.60;;;13.30;99.90;;;;;;4970630;28;20043;-59
2022/06/12 03:35:10;;;;;;;14.02;3.05;;;13.30;99.90;;;;;;4990900;28;20649;-59
2022/06/12 03:37:52;;;;;;;10.40;2.88;;;13.30;99.90;;;;;;4970323;28;20137;-58
2022/06/12 03:40:22;;;;;;;19.58;3.58;;;13.30;99.90;;;;;;4970369;28;20313;-59
2022/06/12 03:43:00;;;;;;;15.57;3.28;;;13.30;99.90;;;;;;4969024;28;20490;-58
2022/06/12 03:45:33;;;;;;;11.68;2.65;;;13.20;99.90;;;;;;4968333;28;20082;-59
2022/06/12 03:48:12;;;;;;;9.63;3.10;;;13.20;99.90;;;;;;4984278;28;20042;-59
2022/06/12 03:50:41;;;;;;;14.35;3.67;;;13.10;99.90;;;;;;4969000;28;20304;-59
2022/06/12 03:53:43;;;;;;;11.57;3.72;;;13.10;99.90;;;;;;4998143;28;20129;-59
2022/06/12 03:59:21;;;;;;;16.25;3.08;;;13.20;99.90;;;;;;4969993;28;20075;-59
2022/06/12 04:01:48;;;;;;;19.92;3.00;;;13.20;99.90;;;;;;4967769;28;20073;-59
2022/06/12 04:04:15;;;;;;;15.15;3.15;;;13.10;99.90;;;;;;4966306;28;20063;-59
2022/06/12 04:06:43;;;;;;;18.73;3.90;;;13.10;99.90;;;;;;4998664;28;20090;-60
2022/06/12 04:09:21;;;;;;;22.90;5.03;;;13.10;99.90;;;;;;4968949;28;20122;-59
2022/06/12 04:11:53;;;;;;;16.23;4.63;;;13.10;99.90;;;;;;4968255;28;20230;-60
2022/06/12 04:14:20;;;;;;;8.90;2.83;;;13.10;99.90;;;;;;5000117;28;20067;-59
2022/06/12 04:16:49;;;;;;;14.73;4.15;;;13.10;99.90;;;;;;4982127;28;20146;-59
2022/06/12 04:19:18;;;;;;;16.65;3.28;;;13.10;99.90;;;;;;4967098;28;20042;-60
2022/06/12 04:21:54;;;;;;;16.30;3.63;;;13.10;99.90;;;;;;4964445;28;20589;-60
2022/06/12 04:24:27;;;;;;;11.88;3.30;;;13.10;99.90;;;;;;4969621;28;20066;-60
2022/06/12 04:27:12;;;;;;;19.83;3.85;;;13.20;99.90;;;;;;4968053;28;20074;-60
2022/06/12 04:29:48;;;;;;;12.02;3.35;;;13.10;99.90;;;;;;4969357;28;20130;-60
2022/06/12 04:32:15;;;;;;;19.52;4.30;;;13.10;99.90;;;;;;4968295;28;20824;-63
2022/06/12 04:34:42;;;;;;;12.50;4.43;;;13.10;99.90;;;;;;4964658;28;20082;-60
2022/06/12 04:37:23;;;;;;;11.85;4.47;;;13.00;99.90;;;;;;4967857;28;20051;-60
2022/06/12 04:39:50;;;;;;;11.98;3.30;;;13.00;99.90;;;;;;4969150;28;20122;-60
2022/06/12 04:42:19;;;;;;;15.60;3.03;;;13.00;99.90;;;;;;4969532;28;20154;-60
2022/06/12 04:44:45;;;;;;;15.07;3.13;;;13.00;99.90;;;;;;4969230;28;20153;-60
2022/06/12 04:47:13;;;;;;;16.13;3.10;;;13.10;99.90;;;;;;4969521;28;20057;-60
2022/06/12 04:49:40;;;;;;;11.30;2.90;;;13.20;99.90;;;;;;4968014;28;20692;-61
2022/06/12 04:52:08;;;;;;;14.30;3.83;;;13.20;99.90;;;;;;4968868;28;20138;-60
2022/06/12 04:54:35;;;;;;;18.10;3.00;;;13.20;99.90;;;;;;4963885;28;20520;-60
2022/06/12 04:57:02;;;;;;;16.20;4.43;;;13.20;99.90;;;;;;4968940;28;20046;-60
2022/06/12 04:59:29;;;;;;;12.55;3.33;;;13.20;99.90;;;;;;4969061;28;20047;-60
2022/06/12 05:01:56;;;;;;;16.38;3.67;;;13.30;99.90;;;;;;4969062;28;20051;-61
2022/06/12 05:04:23;;;;;;;20.88;3.63;;;13.30;99.90;;;;;;4968878;28;20749;-59
2022/06/12 05:06:51;;;;;;;14.35;4.22;;;13.30;99.90;;;;;;4969394;28;20134;-60
2022/06/12 05:09:19;;;;;;;14.30;2.85;;;13.20;99.90;;;;;;4968951;28;20129;-61
2022/06/12 05:11:45;;;;;;;10.45;4.45;;;13.20;99.90;;;;;;4968951;28;20078;-59
2022/06/12 05:14:12;;;;;;;15.30;4.25;;;13.20;99.90;;;;;;4969006;28;20047;-59
2022/06/12 05:16:46;;;;;;;20.13;4.22;;;13.30;99.90;;;;;;4968893;28;20133;-59
2022/06/12 05:19:16;;;;;;;14.30;3.28;;;13.30;99.90;;;;;;4967947;28;20047;-59
2022/06/12 05:21:43;;;;;;;18.30;4.60;;;13.30;99.90;;;;;;4968692;28;20534;-59
2022/06/12 05:24:10;;;;;;;15.70;3.53;;;13.30;99.90;;;;;;4968860;28;20129;-60
2022/06/12 05:26:38;;;;;;;13.82;3.80;;;13.30;99.90;;;;;;4968750;28;20135;-59
2022/06/12 05:29:06;;;;;;;15.20;3.65;;;13.40;99.90;;;;;;4968739;28;20085;-59
2022/06/12 05:31:33;;;;;;;18.83;3.30;;;13.50;99.90;;;;;;4967075;28;20071;-59
2022/06/12 05:34:00;;;;;;;20.95;3.65;;;13.50;99.90;;;;;;4968829;28;20114;-59
2022/06/12 05:36:26;;;;;;;20.17;2.97;;;13.60;99.90;;;;;;4968718;28;20502;-59
2022/06/12 05:38:53;;;;;;;16.95;3.30;;;13.70;99.90;;;;;;4968664;28;20093;-59
2022/06/12 05:41:20;;;;;;;13.38;3.55;;;13.60;99.90;;;;;;4968658;28;20106;-59
2022/06/12 05:43:47;;;;;;;22.33;3.92;;;13.60;99.90;;;;;;4968336;28;20098;-60
2022/06/12 05:46:14;;;;;;;13.82;3.47;;;13.60;99.90;;;;;;4964298;28;20167;-60
2022/06/12 05:48:41;;;;;;;17.13;4.30;;;13.60;99.90;;;;;;4966684;28;20078;-60
2022/06/12 05:51:10;;;;;;;15.60;3.53;;;13.70;99.90;;;;;;4968654;28;20081;-60
2022/06/12 05:53:37;;;;;;;17.52;4.50;;;13.70;99.90;;;;;;4968530;28;20139;-59
2022/06/12 05:56:05;;;;;;;19.27;3.47;;;13.70;99.90;;;;;;4968418;28;20078;-60
2022/06/12 05:58:32;;;;;;;17.75;3.30;;;13.70;99.90;;;;;;4968458;28;20125;-59
2022/06/12 06:00:59;;;;;;;19.20;3.83;;;13.70;99.90;;;;;;4968075;28;20562;-59
2022/06/12 06:03:26;;;;;;;12.32;3.47;;;13.80;99.90;;;;;;4968446;28;20057;-60
2022/06/12 06:05:53;;;;;;;22.60;3.90;;;13.80;99.90;;;;;;4966253;28;20051;-59
2022/06/12 06:08:19;;;;;;;16.60;3.33;;;13.90;99.90;;;;;;4970244;28;20585;-59
2022/06/12 06:10:46;;;;;;;13.82;3.35;;;14.00;99.90;;;;;;4971624;28;20198;-60
2022/06/12 06:13:14;;;;;;;17.02;3.28;;;14.00;99.90;;;;;;4970620;28;20152;-60
2022/06/12 06:15:41;;;;;;;10.60;3.58;;;13.90;99.90;;;;;;4971116;28;20134;-60
2022/06/12 06:18:07;;;;;;;21.33;3.80;;;14.00;99.90;;;;;;4971761;28;20137;-59
2022/06/12 06:20:36;;;;;;;20.02;5.13;;;13.90;99.90;;;;;;4972080;28;20050;-59
2022/06/12 06:23:03;;;;;;;19.25;4.25;;;14.00;99.90;;;;;;4971829;28;20057;-59
2022/06/12 06:25:29;;;;;;;16.75;3.55;;;14.00;99.90;;;;;;4971501;28;20074;-59
2022/06/12 06:27:56;;;;;;;18.63;3.72;;;14.20;99.90;;;;;;4970512;28;20094;-59
2022/06/12 06:30:24;;;;;;;13.43;3.50;;;14.10;99.90;;;;;;4971553;28;20039;-59
2022/06/12 06:32:50;;;;;;;18.02;3.17;;;14.30;99.90;;;;;;4966061;28;20046;-59
2022/06/12 06:35:18;;;;;;;21.42;4.43;;;14.40;99.90;;;;;;4971691;28;20082;-59
2022/06/12 06:37:44;;;;;;;13.98;3.47;;;14.50;99.90;;;;;;4971177;28;20090;-59
2022/06/12 06:40:12;;;;;;;19.63;5.13;;;14.50;99.90;;;;;;4971360;28;20141;-60
2022/06/12 06:42:39;;;;;;;21.00;3.38;;;14.50;99.90;;;;;;4971252;28;20138;-59
2022/06/12 06:47:52;;;;;;;13.27;2.90;;;14.70;99.90;;;;;;4968672;28;20074;-59
2022/06/12 06:50:19;;;;;;;24.73;4.35;;;14.80;99.90;;;;;;4965233;28;20061;-59
2022/06/12 06:52:46;;;;;;;14.70;4.43;;;14.80;99.90;;;;;;4970932;28;20042;-60
2022/06/12 06:55:13;;;;;;;11.32;3.08;;;14.90;99.90;;;;;;4970594;28;20138;-60
2022/06/12 06:57:41;;;;;;;21.98;3.90;;;15.00;99.90;;;;;;4970834;28;20125;-60
2022/06/12 07:00:09;;;;;;;14.45;3.80;;;14.90;99.90;;;;;;4970849;28;20196;-60
2022/06/12 07:02:38;;;;;;;12.52;4.65;;;14.80;99.90;;;;;;4969759;28;20146;-60
2022/06/12 07:05:05;;;;;;;13.32;3.40;;;15.00;99.90;;;;;;4970344;28;20063;-60
2022/06/12 07:07:33;;;;;;;14.60;4.47;;;15.10;99.90;;;;;;4969402;28;20043;-61
2022/06/12 07:10:00;;;;;;;13.88;3.85;;;15.10;99.90;;;;;;4969028;28;20082;-60
2022/06/12 07:12:27;;;;;;;19.52;4.07;;;15.20;99.90;;;;;;4968375;28;20070;-62
2022/06/12 07:14:58;;;;;;;14.73;4.25;;;15.20;99.90;;;;;;4968843;28;20222;-60
2022/06/12 07:17:25;;;;;;;12.65;2.63;;;15.20;99.90;;;;;;4968850;28;20454;-60
2022/06/12 07:19:52;;;;;;;12.68;3.72;;;15.30;99.90;;;;;;4967316;28;20086;-60
2022/06/12 07:22:21;;;;;;;17.15;4.35;;;15.40;99.90;;;;;;4968691;28;20409;-60
2022/06/12 07:24:48;;;;;;;17.58;3.47;;;15.50;99.90;;;;;;4968526;28;20043;-60
2022/06/12 07:27:15;;;;;;;10.90;3.38;;;15.60;99.90;;;;;;4969389;28;20074;-60
2022/06/12 07:29:42;;;;;;;11.60;3.40;;;15.70;99.90;;;;;;4968724;28;20105;-60
2022/06/12 07:32:09;;;;;;;16.70;4.15;;;15.80;99.90;;;;;;4967390;28;20047;-60
2022/06/12 07:34:36;;;;;;;13.13;3.03;;;15.70;99.90;;;;;;4968208;28;20074;-60
2022/06/12 07:37:03;;;;;;;11.68;2.83;;;15.70;99.90;;;;;;4968641;28;20047;-64
2022/06/12 07:39:30;;;;;;;17.83;3.38;;;15.70;99.90;;;;;;4974227;28;20070;-60
2022/06/12 07:41:57;;;;;;;11.15;3.38;;;15.70;99.90;;;;;;4996282;28;20082;-60
2022/06/12 07:44:27;;;;;;;17.80;3.33;;;15.80;99.90;;;;;;4967886;28;20143;-59
2022/06/12 07:46:54;;;;;;;16.20;3.50;;;15.80;99.90;;;;;;4994673;28;20128;-59
2022/06/12 07:49:21;;;;;;;18.35;3.45;;;15.90;99.90;;;;;;4968319;28;20125;-59
2022/06/12 07:51:48;;;;;;;15.73;2.88;;;16.00;99.90;;;;;;4968147;28;20111;-59
2022/06/12 07:54:16;;;;;;;10.68;3.08;;;16.00;99.90;;;;;;4967710;28;20047;-60
2022/06/12 07:56:43;;;;;;;15.32;3.13;;;16.00;99.90;;;;;;4968097;28;20076;-59
2022/06/12 07:59:10;;;;;;;13.40;3.65;;;16.00;99.90;;;;;;4968299;28;20066;-59
2022/06/12 08:01:37;;;;;;;16.67;3.47;;;16.20;99.90;;;;;;4967748;28;20524;-60
2022/06/12 08:04:04;;;;;;;11.68;2.92;;;16.20;99.90;;;;;;4968563;28;20550;-60
2022/06/12 08:06:31;;;;;;;14.38;2.95;;;16.20;99.90;;;;;;4969227;28;20268;-59
2022/06/12 08:08:58;;;;;;;13.60;3.40;;;16.30;99.90;;;;;;4983293;28;20051;-59
2022/06/12 08:11:29;;;;;;;8.45;2.78;;;16.40;99.90;;;;;;4623501;28;10000651;-60
2022/06/12 08:13:56;;;;;;;12.15;2.88;;;16.40;99.90;;;;;;4966201;28;20137;-59
2022/06/12 08:16:23;;;;;;;13.27;3.30;;;16.50;99.90;;;;;;4964992;28;20134;-60
2022/06/12 08:18:52;;;;;;;7.25;2.97;;;16.40;99.90;;;;;;4966275;28;20463;-60
2022/06/12 08:21:19;;;;;;;7.43;3.38;;;16.50;99.90;;;;;;4965783;28;20070;-59
2022/06/12 08:23:56;;;;;;;8.50;2.30;;;16.50;99.90;;;;;;4964446;28;20085;-59
2022/06/12 08:26:31;;;;;;;12.88;3.72;;;16.70;99.90;;;;;;4966024;28;20133;-59
2022/06/12 08:29:09;;;;;;;10.43;2.42;;;16.90;99.90;;;;;;4962324;28;20038;-60
2022/06/12 08:31:47;;;;;;;12.75;2.80;;;16.90;99.90;;;;;;4964840;28;20138;-59
2022/06/12 08:34:22;;;;;;;17.55;3.00;;;16.80;99.90;;;;;;4963453;28;20142;-59
2022/06/12 08:36:50;;;;;;;10.80;3.10;;;16.80;99.90;;;;;;4965042;28;20098;-59
2022/06/12 08:39:17;;;;;;;13.23;4.20;;;16.80;99.90;;;;;;4966189;28;20486;-59
2022/06/12 08:41:50;;;;;;;14.05;3.00;;;16.90;99.90;;;;;;4966502;28;20086;-60
2022/06/12 08:44:41;;;;;;;8.20;2.20;;;17.10;99.90;;;;;;4966274;28;20078;-60
2022/06/12 08:47:38;;;;;;;14.48;3.17;;;17.10;99.90;;;;;;4965005;28;20078;-60
2022/06/12 08:50:13;;;;;;;15.10;4.00;;;17.10;99.90;;;;;;4963023;28;20105;-60
2022/06/12 08:53:02;;;;;;;9.32;3.25;;;17.30;99.90;;;;;;4966143;28;20121;-60
2022/06/12 08:55:40;;;;;;;7.57;2.00;;;17.20;99.90;;;;;;4995461;28;20050;-59
2022/06/12 08:58:26;;;;;;;15.38;2.45;;;17.40;99.90;;;;;;4966171;28;20564;-59
2022/06/12 09:00:54;;;;;;;13.90;2.47;;;17.40;99.90;;;;;;4960842;28;20644;-60
2022/06/12 09:03:24;;;;;;;8.73;2.92;;;17.50;99.90;;;;;;4965901;28;20073;-59
2022/06/12 09:06:12;;;;;;;8.07;1.83;;;17.50;99.90;;;;;;4964598;28;20506;-59
2022/06/12 09:08:56;;;;;;;8.77;3.05;;;17.70;99.90;;;;;;4964701;28;20633;-59
2022/06/12 09:11:30;;;;;;;10.80;2.50;;;17.50;98.80;;;;;;4965349;28;20163;-58
2022/06/12 09:14:09;;;;;;;15.32;3.05;;;17.40;98.60;;;;;;4986537;28;20050;-59
2022/06/12 09:17:02;;;;;;;10.63;2.00;;;17.50;99.10;;;;;;4963946;28;20098;-59
2022/06/12 09:19:52;;;;;;;9.10;2.45;;;17.60;99.00;;;;;;4963664;28;20105;-59
2022/06/12 09:22:27;;;;;;;8.35;2.15;;;17.80;99.70;;;;;;4962282;28;20078;-59
2022/06/12 09:24:59;;;;;;;7.38;1.92;;;17.90;99.40;;;;;;4963916;28;20055;-59
2022/06/12 09:28:01;;;;;;;7.35;2.58;;;18.00;99.80;;;;;;4964428;28;20084;-59
2022/06/12 09:30:34;;;;;;;8.15;2.28;;;18.10;99.60;;;;;;4955646;28;20094;-63
2022/06/12 09:33:26;;;;;;;9.73;2.80;;;18.30;99.50;;;;;;4963433;28;20134;-59
2022/06/12 09:36:18;;;;;;;7.55;2.58;;;18.40;98.00;;;;;;4990362;28;20085;-60
2022/06/12 09:38:53;;;;;;;8.45;2.53;;;18.30;96.70;;;;;;4964692;28;20579;-62
2022/06/12 09:41:23;;;;;;;6.68;1.63;;;18.40;96.40;;;;;;4963359;28;20113;-61
2022/06/12 09:44:06;;;;;;;9.40;2.22;;;18.20;96.70;;;;;;4963120;28;20138;-61
2022/06/12 09:46:37;;;;;;;10.05;2.72;;;18.20;96.80;;;;;;4965729;28;20039;-61
2022/06/12 09:49:17;;;;;;;9.30;2.17;;;18.30;97.40;;;;;;4966321;28;20129;-60
2022/06/12 09:52:13;;;;;;;8.15;1.92;;;18.40;96.00;;;;;;4966520;28;20054;-61
2022/06/12 09:55:00;;;;;;;10.07;2.90;;;18.50;96.20;;;;;;4966307;28;20505;-61
2022/06/12 09:57:29;;;;;;;5.15;1.85;;;18.80;96.20;;;;;;4964243;28;20107;-61
2022/06/12 09:59:58;;;;;;;15.43;2.75;;;19.00;95.80;;;;;;4967450;28;20130;-61
2022/06/12 10:02:58;;;;;;;10.50;2.38;;;19.00;96.00;;;;;;4966352;28;20129;-61
2022/06/12 10:05:35;;;;;;;13.13;2.40;;;19.20;94.60;;;;;;4958843;28;20078;-60
2022/06/12 10:08:13;;;;;;;9.32;2.20;;;19.30;95.30;;;;;;4967494;28;20105;-61
2022/06/12 10:10:56;;;;;;;8.80;2.25;;;19.60;94.10;;;;;;4966026;28;20458;-61
2022/06/12 10:13:26;;;;;;;4.88;1.60;;;19.70;92.30;;;;;;4993509;28;20047;-60
2022/06/12 10:15:59;;;;;;;9.02;2.70;;;19.80;94.10;;;;;;4974253;28;20462;-61
2022/06/12 10:18:29;;;;;;;12.55;3.08;;;20.00;92.80;;;;;;4962478;28;20121;-61
2022/06/12 10:21:01;;;;;;;9.13;1.95;;;20.20;92.60;;;;;;4963845;28;20558;-61
2022/06/12 10:23:28;;;;;;;9.00;2.50;;;20.70;91.60;;;;;;4979659;28;20046;-61
2022/06/12 10:25:57;;;;;;;8.73;2.50;;;20.90;93.10;;;;;;4997605;28;20126;-61
2022/06/12 10:28:31;;;;;;;7.25;2.13;;;21.00;91.30;;;;;;4966439;28;20125;-62
2022/06/12 10:31:04;;;;;;;5.85;1.95;;;21.20;87.90;;;;;;4967669;28;20573;-61
2022/06/12 10:33:46;;;;;;;;;;;21.40;87.40;;;;;;4967929;28;20082;-61
2022/06/12 10:36:25;;;;;;;6.13;1.85;;;20.80;85.60;;;;;;4967310;28;20457;-62
2022/06/12 10:39:08;;;;;;;15.93;3.65;;;20.50;87.00;;;;;;4960464;28;20567;-61
2022/06/12 10:41:43;;;;;;;11.98;1.92;;;20.40;86.50;;;;;;4966936;28;20086;-61
2022/06/12 10:44:25;;;;;;;6.47;2.28;;;20.40;87.50;;;;;;4961010;28;20067;-61
2022/06/12 10:46:52;;;;;;;6.63;3.08;;;21.00;85.40;;;;;;4994128;28;20082;-64
2022/06/12 10:49:21;;;;;;;11.90;2.60;;;20.90;84.30;;;;;;4967151;28;20113;-60
2022/06/12 10:51:49;;;;;;;6.32;1.80;;;20.70;87.50;;;;;;4967530;28;20121;-61
2022/06/12 10:54:24;;;;;;;9.93;2.53;;;20.60;89.60;;;;;;4999225;28;20050;-60
2022/06/12 10:56:54;;;;;;;5.28;1.75;;;20.50;90.60;;;;;;4965886;28;20134;-61
2022/06/12 10:59:37;;;;;;;12.15;2.60;;;20.30;90.00;;;;;;4970681;28;20046;-62
2022/06/12 11:02:07;;;;;;;14.02;2.17;;;20.00;88.60;;;;;;4965961;28;20459;-60
2022/06/12 11:04:40;;;;;;;5.85;1.70;;;19.90;87.50;;;;;;4970625;28;20563;-61
2022/06/12 11:07:37;;;;;;;7.78;2.13;;;19.70;90.20;;;;;;4970502;28;20047;-61
2022/06/12 11:10:30;;;;;;;5.45;1.63;;;19.50;88.70;;;;;;4966081;28;20141;-61
2022/06/12 11:13:16;;;;;;;8.02;2.28;;;19.70;90.00;;;;;;5000684;28;20050;-61
2022/06/12 11:16:04;;;;;;;11.70;2.33;;;19.90;89.90;;;;;;4968981;28;20574;-62
2022/06/12 11:18:47;;;;;;;7.25;1.92;;;20.00;89.50;;;;;;4968741;28;20049;-61
2022/06/12 11:21:33;;;;;;;9.13;2.08;;;20.00;87.60;;;;;;4998219;28;20054;-62
2022/06/12 11:24:18;;;;;;;9.32;1.83;;;20.10;86.80;;;;;;4969429;28;20516;-61
2022/06/12 11:26:51;;;;;;;6.50;1.88;;;20.10;85.50;;;;;;4968597;28;20085;-60
2022/06/12 11:29:29;;;;;;;6.80;2.03;;;20.20;86.10;;;;;;4969391;28;20544;-59
2022/06/12 11:31:55;;;;;;;5.72;1.85;;;20.20;87.90;;;;;;4966002;28;20510;-60
2022/06/12 11:34:41;;;;;;;12.82;3.58;;;20.30;87.80;;;;;;4969744;28;20073;-60
2022/06/12 11:37:08;;;;;;;5.93;1.50;;;20.20;84.10;;;;;;4966545;28;20047;-60
2022/06/12 11:40:03;;;;;;;7.43;1.60;;;20.20;87.90;;;;;;4616099;28;9999954;-60
2022/06/12 11:42:36;;;;;;;5.53;1.60;;;20.20;86.00;;;;;;4963406;28;20082;-60
2022/06/12 11:45:41;;;;;;;6.55;1.60;;;20.20;85.90;;;;;;4968843;28;20134;-60
2022/06/12 11:48:12;;;;;;;6.40;1.70;;;20.20;86.00;;;;;;4993670;28;20462;-59
2022/06/12 11:50:51;;;;;;;5.80;1.63;;;20.30;85.90;;;;;;4998135;28;20051;-60
2022/06/12 11:53:38;;;;;;;8.93;2.13;;;20.40;86.20;;;;;;4964672;28;20051;-61
2022/06/12 11:56:40;;;;;;;10.38;1.80;;;20.20;84.40;;;;;;4966284;28;20534;-59
2022/06/12 11:59:06;;;;;;;8.50;1.60;;;20.20;84.40;;;;;;4994302;28;20074;-61
2022/06/12 12:01:52;;;;;;;8.60;2.00;;;20.30;86.80;;;;;;4967473;28;20046;-60
2022/06/12 12:04:38;;;;;;;4.72;1.33;;;20.50;83.80;;;;;;4967103;28;20162;-60
2022/06/12 12:07:22;;;;;;;9.93;2.58;;;20.70;83.40;;;;;;4965661;28;20062;-59
2022/06/12 12:10:07;;;;;;;7.43;2.03;;;20.70;85.00;;;;;;4993025;28;20043;-59
2022/06/12 12:12:38;;;;;;;9.98;2.20;;;20.70;85.50;;;;;;4967114;28;20121;-58
2022/06/12 12:15:07;;;;;;;3.20;1.67;;;20.90;83.90;;;;;;4966337;28;20129;-59
2022/06/12 12:17:37;;;;;;;5.68;1.95;;;20.80;81.70;;;;;;4965661;28;20150;-59
2022/06/12 12:20:22;;;;;;;7.95;2.38;;;20.90;83.50;;;;;;4967679;28;20074;-60
2022/06/12 12:23:07;;;;;;;9.80;3.33;;;21.00;82.40;;;;;;4968394;28;20458;-60
2022/06/12 12:25:46;;;;;;;;;;;21.10;82.20;;;;;;4968147;28;20117;-60
2022/06/12 12:28:38;;;;;;;11.85;2.05;;;21.20;81.30;;;;;;4968617;28;19954;-60
2022/06/12 12:31:07;;;;;;;5.97;1.90;;;21.20;82.20;;;;;;4968639;28;20047;-60
2022/06/12 12:33:34;;;;;;;4.70;1.58;;;21.30;82.80;;;;;;4968173;28;20236;-60
2022/06/12 12:41:53;;;;;;;6.05;1.95;;;21.10;80.60;;;;;;4968662;28;20081;-60
2022/06/12 12:44:35;;;;;;;7.45;2.05;;;20.90;79.60;;;;;;4965323;28;20137;-60
2022/06/12 12:47:02;;;;;;;6.47;2.40;;;21.00;81.40;;;;;;4968646;28;20058;-59
2022/06/12 12:49:32;;;;;;;6.63;2.28;;;21.00;82.90;;;;;;4967916;28;20046;-60
2022/06/12 12:52:16;;;;;;;8.93;2.30;;;21.20;80.60;;;;;;4968752;28;20074;-60
2022/06/12 12:54:43;;;;;;;8.13;2.22;;;21.40;80.50;;;;;;4968406;28;20095;-60
2022/06/12 12:57:11;;;;;;;10.20;2.55;;;21.20;79.90;;;;;;4968456;28;20054;-61
2022/06/12 12:59:49;;;;;;;6.88;1.58;;;21.20;81.30;;;;;;4966855;28;20051;-59
2022/06/12 13:02:23;;;;;;;5.13;1.55;;;21.10;76.20;;;;;;4983150;28;20055;-59
2022/06/12 13:04:57;;;;;;;7.05;2.17;;;21.10;78.90;;;;;;4966225;28;20050;-60
2022/06/12 13:07:36;;;;;;;7.18;2.22;;;21.20;80.30;;;;;;4988204;28;20050;-60
2022/06/12 13:10:24;;;;;;;6.60;2.70;;;21.40;81.20;;;;;;4967304;28;20082;-60
2022/06/12 13:13:07;;;;;;;7.10;2.17;;;21.30;80.10;;;;;;4967705;28;20050;-60
2022/06/12 13:15:58;;;;;;;5.10;2.27;;;21.30;77.20;;;;;;4992002;28;20059;-61
2022/06/12 13:18:54;;;;;;;5.50;2.35;;;21.40;78.30;;;;;;4966051;28;20483;-61
2022/06/12 13:21:38;;;;;;;12.32;3.35;;;21.60;77.50;;;;;;4966912;28;20113;-60
2022/06/12 13:24:21;;;;;;;4.93;1.60;;;21.60;75.10;;;;;;4995727;28;20141;-60
2022/06/12 13:26:47;;;;;;;11.80;2.47;;;21.80;77.10;;;;;;4963057;28;20126;-60
2022/06/12 13:29:16;;;;;;;5.97;2.25;;;21.90;77.30;;;;;;4966432;28;20054;-59
2022/06/12 13:31:59;;;;;;;8.80;2.35;;;21.80;75.80;;;;;;4967493;28;20046;-60